sensor_id;sensor_type;location;lat;lon;timestamp;P1;durP1;ratioP1;P2;durP2;ratioP2
76073;SDS011;64776;42.636;24.358;2023-07-29T00:00:51;5.57;;;2.17;;
76073;SDS011;64776;42.636;24.358;2023-07-29T00:03:53;6.88;;;2.83;;
76073;SDS011;64776;42.636;24.358;2023-07-29T00:06:53;5.90;;;1.92;;
76073;SDS011;64776;42.636;24.358;2023-07-29T00:09:56;6.22;;;2.88;;
76073;SDS011;64776;42.636;24.358;2023-07-29T00:12:56;6.72;;;1.95;;
76073;SDS011;64776;42.636;24.358;2023-07-29T00:15:57;5.85;;;2.10;;
76073;SDS011;64776;42.636;24.358;2023-07-29T00:18:58;5.63;;;2.15;;
76073;SDS011;64776;42.636;24.358;2023-07-29T00:21:59;6.40;;;2.75;;
76073;SDS011;64776;42.636;24.358;2023-07-29T00:25:01;5.47;;;2.13;;
76073;SDS011;64776;42.636;24.358;2023-07-29T00:28:03;5.53;;;2.30;;
76073;SDS011;64776;42.636;24.358;2023-07-29T00:31:04;8.43;;;2.13;;
76073;SDS011;64776;42.636;24.358;2023-07-29T00:34:05;5.28;;;1.92;;
76073;SDS011;64776;42.636;24.358;2023-07-29T00:37:06;5.43;;;2.15;;
76073;SDS011;64776;42.636;24.358;2023-07-29T00:40:09;5.93;;;2.25;;
76073;SDS011;64776;42.636;24.358;2023-07-29T00:43:15;5.05;;;2.22;;
76073;SDS011;64776;42.636;24.358;2023-07-29T00:46:16;6.22;;;2.72;;
76073;SDS011;64776;42.636;24.358;2023-07-29T00:49:17;8.15;;;2.42;;
76073;SDS011;64776;42.636;24.358;2023-07-29T00:52:18;5.88;;;2.45;;
76073;SDS011;64776;42.636;24.358;2023-07-29T00:55:20;6.07;;;2.20;;
76073;SDS011;64776;42.636;24.358;2023-07-29T00:58:21;5.43;;;1.88;;
76073;SDS011;64776;42.636;24.358;2023-07-29T01:01:22;5.28;;;2.33;;
76073;SDS011;64776;42.636;24.358;2023-07-29T01:04:23;6.60;;;2.15;;
76073;SDS011;64776;42.636;24.358;2023-07-29T01:07:27;5.45;;;2.03;;
76073;SDS011;64776;42.636;24.358;2023-07-29T01:10:37;7.93;;;1.80;;
76073;SDS011;64776;42.636;24.358;2023-07-29T01:13:48;5.68;;;2.42;;
76073;SDS011;64776;42.636;24.358;2023-07-29T01:16:55;4.72;;;2.10;;
76073;SDS011;64776;42.636;24.358;2023-07-29T01:20:01;4.95;;;2.00;;
76073;SDS011;64776;42.636;24.358;2023-07-29T01:23:05;9.80;;;2.10;;
76073;SDS011;64776;42.636;24.358;2023-07-29T01:26:07;6.05;;;1.98;;
76073;SDS011;64776;42.636;24.358;2023-07-29T01:29:08;5.30;;;2.08;;
76073;SDS011;64776;42.636;24.358;2023-07-29T01:32:10;6.57;;;2.60;;
76073;SDS011;64776;42.636;24.358;2023-07-29T01:35:17;6.07;;;2.55;;
76073;SDS011;64776;42.636;24.358;2023-07-29T01:38:24;8.90;;;2.60;;
76073;SDS011;64776;42.636;24.358;2023-07-29T01:41:30;6.18;;;2.15;;
76073;SDS011;64776;42.636;24.358;2023-07-29T01:44:32;5.35;;;2.03;;
76073;SDS011;64776;42.636;24.358;2023-07-29T01:47:33;5.78;;;2.13;;
76073;SDS011;64776;42.636;24.358;2023-07-29T01:50:34;5.60;;;2.55;;
76073;SDS011;64776;42.636;24.358;2023-07-29T01:53:35;6.70;;;2.05;;
76073;SDS011;64776;42.636;24.358;2023-07-29T01:56:37;6.93;;;2.22;;
76073;SDS011;64776;42.636;24.358;2023-07-29T01:59:38;4.95;;;1.85;;
76073;SDS011;64776;42.636;24.358;2023-07-29T02:02:39;6.82;;;2.75;;
76073;SDS011;64776;42.636;24.358;2023-07-29T02:05:39;6.72;;;3.25;;
76073;SDS011;64776;42.636;24.358;2023-07-29T02:08:40;9.73;;;2.67;;
76073;SDS011;64776;42.636;24.358;2023-07-29T02:11:42;6.63;;;2.33;;
76073;SDS011;64776;42.636;24.358;2023-07-29T02:14:43;6.85;;;2.25;;
76073;SDS011;64776;42.636;24.358;2023-07-29T02:17:44;5.50;;;2.25;;
76073;SDS011;64776;42.636;24.358;2023-07-29T02:20:45;5.25;;;2.03;;
76073;SDS011;64776;42.636;24.358;2023-07-29T02:23:45;6.10;;;2.05;;
76073;SDS011;64776;42.636;24.358;2023-07-29T02:26:48;8.00;;;3.25;;
76073;SDS011;64776;42.636;24.358;2023-07-29T02:29:48;9.27;;;3.13;;
76073;SDS011;64776;42.636;24.358;2023-07-29T02:32:49;6.00;;;2.45;;
76073;SDS011;64776;42.636;24.358;2023-07-29T02:35:50;5.22;;;2.10;;
76073;SDS011;64776;42.636;24.358;2023-07-29T02:38:51;5.25;;;1.90;;
76073;SDS011;64776;42.636;24.358;2023-07-29T02:41:53;5.35;;;2.13;;
76073;SDS011;64776;42.636;24.358;2023-07-29T02:44:54;6.18;;;2.60;;
76073;SDS011;64776;42.636;24.358;2023-07-29T02:47:54;7.43;;;2.55;;
76073;SDS011;64776;42.636;24.358;2023-07-29T02:50:55;8.60;;;2.53;;
76073;SDS011;64776;42.636;24.358;2023-07-29T02:53:56;7.07;;;2.55;;
76073;SDS011;64776;42.636;24.358;2023-07-29T02:56:59;7.75;;;2.67;;
76073;SDS011;64776;42.636;24.358;2023-07-29T02:59:59;7.28;;;2.63;;
76073;SDS011;64776;42.636;24.358;2023-07-29T03:03:00;6.63;;;2.03;;
76073;SDS011;64776;42.636;24.358;2023-07-29T03:06:01;11.80;;;3.20;;
76073;SDS011;64776;42.636;24.358;2023-07-29T03:09:03;5.97;;;2.58;;
76073;SDS011;64776;42.636;24.358;2023-07-29T03:12:05;6.10;;;2.60;;
76073;SDS011;64776;42.636;24.358;2023-07-29T03:15:07;6.22;;;2.30;;
76073;SDS011;64776;42.636;24.358;2023-07-29T03:18:08;11.95;;;2.10;;
76073;SDS011;64776;42.636;24.358;2023-07-29T03:21:09;9.73;;;2.38;;
76073;SDS011;64776;42.636;24.358;2023-07-29T03:24:10;6.97;;;2.50;;
76073;SDS011;64776;42.636;24.358;2023-07-29T03:27:13;9.00;;;2.25;;
76073;SDS011;64776;42.636;24.358;2023-07-29T03:30:13;5.63;;;2.05;;
76073;SDS011;64776;42.636;24.358;2023-07-29T03:33:14;6.00;;;2.65;;
76073;SDS011;64776;42.636;24.358;2023-07-29T03:36:15;8.55;;;3.58;;
76073;SDS011;64776;42.636;24.358;2023-07-29T03:39:16;6.32;;;2.42;;
76073;SDS011;64776;42.636;24.358;2023-07-29T03:42:18;6.72;;;2.70;;
76073;SDS011;64776;42.636;24.358;2023-07-29T03:45:18;8.40;;;2.78;;
76073;SDS011;64776;42.636;24.358;2023-07-29T03:48:19;11.85;;;4.53;;
76073;SDS011;64776;42.636;24.358;2023-07-29T03:51:20;9.40;;;3.42;;
76073;SDS011;64776;42.636;24.358;2023-07-29T03:54:21;9.40;;;4.35;;
76073;SDS011;64776;42.636;24.358;2023-07-29T03:57:23;7.03;;;3.25;;
76073;SDS011;64776;42.636;24.358;2023-07-29T04:00:24;7.97;;;3.13;;
76073;SDS011;64776;42.636;24.358;2023-07-29T04:03:25;14.93;;;8.15;;
76073;SDS011;64776;42.636;24.358;2023-07-29T04:06:26;11.70;;;5.45;;
76073;SDS011;64776;42.636;24.358;2023-07-29T04:09:26;6.88;;;3.22;;
76073;SDS011;64776;42.636;24.358;2023-07-29T04:12:29;13.43;;;3.55;;
76073;SDS011;64776;42.636;24.358;2023-07-29T04:15:30;16.23;;;5.85;;
76073;SDS011;64776;42.636;24.358;2023-07-29T04:18:31;39.05;;;18.40;;
76073;SDS011;64776;42.636;24.358;2023-07-29T04:21:31;24.77;;;11.88;;
76073;SDS011;64776;42.636;24.358;2023-07-29T04:24:32;8.65;;;4.25;;
76073;SDS011;64776;42.636;24.358;2023-07-29T04:27:34;9.98;;;4.20;;
76073;SDS011;64776;42.636;24.358;2023-07-29T04:30:36;8.52;;;3.63;;
76073;SDS011;64776;42.636;24.358;2023-07-29T04:33:37;8.10;;;3.60;;
76073;SDS011;64776;42.636;24.358;2023-07-29T04:36:38;9.18;;;3.35;;
76073;SDS011;64776;42.636;24.358;2023-07-29T04:39:39;10.98;;;3.45;;
76073;SDS011;64776;42.636;24.358;2023-07-29T04:42:41;8.75;;;3.47;;
76073;SDS011;64776;42.636;24.358;2023-07-29T04:45:42;10.85;;;4.43;;
76073;SDS011;64776;42.636;24.358;2023-07-29T04:48:43;14.63;;;4.28;;
76073;SDS011;64776;42.636;24.358;2023-07-29T04:51:44;28.60;;;10.63;;
76073;SDS011;64776;42.636;24.358;2023-07-29T04:54:45;26.48;;;10.52;;
76073;SDS011;64776;42.636;24.358;2023-07-29T04:57:47;19.00;;;8.30;;
76073;SDS011;64776;42.636;24.358;2023-07-29T05:00:48;12.97;;;6.30;;
76073;SDS011;64776;42.636;24.358;2023-07-29T05:03:48;13.23;;;5.18;;
76073;SDS011;64776;42.636;24.358;2023-07-29T05:06:50;13.07;;;5.57;;
76073;SDS011;64776;42.636;24.358;2023-07-29T05:09:51;11.90;;;5.38;;
76073;SDS011;64776;42.636;24.358;2023-07-29T05:12:53;12.20;;;3.30;;
76073;SDS011;64776;42.636;24.358;2023-07-29T05:15:54;12.80;;;5.07;;
76073;SDS011;64776;42.636;24.358;2023-07-29T05:18:55;8.95;;;3.55;;
76073;SDS011;64776;42.636;24.358;2023-07-29T05:21:56;13.25;;;3.38;;
76073;SDS011;64776;42.636;24.358;2023-07-29T05:24:56;11.32;;;3.33;;
76073;SDS011;64776;42.636;24.358;2023-07-29T05:27:58;10.50;;;3.35;;
76073;SDS011;64776;42.636;24.358;2023-07-29T05:31:00;11.60;;;3.10;;
76073;SDS011;64776;42.636;24.358;2023-07-29T05:34:01;6.22;;;3.15;;
76073;SDS011;64776;42.636;24.358;2023-07-29T05:37:02;9.55;;;3.47;;
76073;SDS011;64776;42.636;24.358;2023-07-29T05:40:03;8.98;;;2.40;;
76073;SDS011;64776;42.636;24.358;2023-07-29T05:43:06;10.20;;;2.67;;
76073;SDS011;64776;42.636;24.358;2023-07-29T05:46:07;8.45;;;2.28;;
76073;SDS011;64776;42.636;24.358;2023-07-29T05:49:08;6.57;;;2.83;;
76073;SDS011;64776;42.636;24.358;2023-07-29T05:52:09;5.20;;;2.40;;
76073;SDS011;64776;42.636;24.358;2023-07-29T05:55:10;4.70;;;1.98;;
76073;SDS011;64776;42.636;24.358;2023-07-29T05:58:12;10.40;;;2.85;;
76073;SDS011;64776;42.636;24.358;2023-07-29T06:01:13;13.45;;;3.58;;
76073;SDS011;64776;42.636;24.358;2023-07-29T06:04:14;17.38;;;4.20;;
76073;SDS011;64776;42.636;24.358;2023-07-29T06:07:15;9.98;;;2.95;;
76073;SDS011;64776;42.636;24.358;2023-07-29T06:10:16;7.10;;;2.97;;
76073;SDS011;64776;42.636;24.358;2023-07-29T06:13:18;7.50;;;2.70;;
76073;SDS011;64776;42.636;24.358;2023-07-29T06:16:19;12.02;;;3.28;;
76073;SDS011;64776;42.636;24.358;2023-07-29T06:19:20;11.20;;;3.83;;
76073;SDS011;64776;42.636;24.358;2023-07-29T06:22:21;15.52;;;3.95;;
76073;SDS011;64776;42.636;24.358;2023-07-29T06:25:21;9.18;;;3.95;;
76073;SDS011;64776;42.636;24.358;2023-07-29T06:28:24;4.57;;;2.00;;
76073;SDS011;64776;42.636;24.358;2023-07-29T06:31:24;10.68;;;2.20;;
76073;SDS011;64776;42.636;24.358;2023-07-29T06:34:25;4.93;;;2.05;;
76073;SDS011;64776;42.636;24.358;2023-07-29T06:37:26;5.28;;;1.70;;
76073;SDS011;64776;42.636;24.358;2023-07-29T06:40:27;8.00;;;1.30;;
76073;SDS011;64776;42.636;24.358;2023-07-29T06:43:29;5.97;;;1.40;;
76073;SDS011;64776;42.636;24.358;2023-07-29T06:46:30;4.10;;;1.10;;
76073;SDS011;64776;42.636;24.358;2023-07-29T06:49:30;4.88;;;1.25;;
76073;SDS011;64776;42.636;24.358;2023-07-29T06:52:31;6.65;;;1.63;;
76073;SDS011;64776;42.636;24.358;2023-07-29T06:55:32;12.10;;;5.13;;
76073;SDS011;64776;42.636;24.358;2023-07-29T06:58:34;3.58;;;1.02;;
76073;SDS011;64776;42.636;24.358;2023-07-29T07:01:35;2.95;;;0.85;;
76073;SDS011;64776;42.636;24.358;2023-07-29T07:04:36;4.22;;;1.30;;
76073;SDS011;64776;42.636;24.358;2023-07-29T07:07:36;4.25;;;1.35;;
76073;SDS011;64776;42.636;24.358;2023-07-29T07:10:37;4.75;;;1.63;;
76073;SDS011;64776;42.636;24.358;2023-07-29T07:13:39;3.70;;;0.98;;
76073;SDS011;64776;42.636;24.358;2023-07-29T07:16:40;3.63;;;1.13;;
76073;SDS011;64776;42.636;24.358;2023-07-29T07:19:41;37.88;;;11.38;;
76073;SDS011;64776;42.636;24.358;2023-07-29T07:22:42;9.10;;;1.80;;
76073;SDS011;64776;42.636;24.358;2023-07-29T07:25:43;8.68;;;2.13;;
76073;SDS011;64776;42.636;24.358;2023-07-29T07:28:46;9.52;;;2.92;;
76073;SDS011;64776;42.636;24.358;2023-07-29T07:31:49;4.90;;;1.38;;
76073;SDS011;64776;42.636;24.358;2023-07-29T07:34:51;6.82;;;1.50;;
76073;SDS011;64776;42.636;24.358;2023-07-29T07:37:52;11.52;;;3.63;;
76073;SDS011;64776;42.636;24.358;2023-07-29T07:40:53;8.55;;;2.10;;
76073;SDS011;64776;42.636;24.358;2023-07-29T07:43:55;6.22;;;2.15;;
76073;SDS011;64776;42.636;24.358;2023-07-29T07:46:56;7.60;;;2.53;;
76073;SDS011;64776;42.636;24.358;2023-07-29T07:49:58;4.63;;;1.50;;
76073;SDS011;64776;42.636;24.358;2023-07-29T07:52:59;3.72;;;1.23;;
76073;SDS011;64776;42.636;24.358;2023-07-29T07:56:00;4.45;;;1.58;;
76073;SDS011;64776;42.636;24.358;2023-07-29T07:59:02;5.70;;;1.65;;
76073;SDS011;64776;42.636;24.358;2023-07-29T08:02:03;3.40;;;1.45;;
76073;SDS011;64776;42.636;24.358;2023-07-29T08:05:04;3.88;;;1.35;;
76073;SDS011;64776;42.636;24.358;2023-07-29T08:08:05;11.07;;;2.13;;
76073;SDS011;64776;42.636;24.358;2023-07-29T08:11:06;7.18;;;1.92;;
76073;SDS011;64776;42.636;24.358;2023-07-29T08:14:08;4.50;;;2.03;;
76073;SDS011;64776;42.636;24.358;2023-07-29T08:17:09;17.55;;;5.15;;
76073;SDS011;64776;42.636;24.358;2023-07-29T08:20:10;7.85;;;2.50;;
76073;SDS011;64776;42.636;24.358;2023-07-29T08:23:11;8.90;;;2.42;;
76073;SDS011;64776;42.636;24.358;2023-07-29T08:26:11;7.55;;;2.47;;
76073;SDS011;64776;42.636;24.358;2023-07-29T08:29:14;8.27;;;3.03;;
76073;SDS011;64776;42.636;24.358;2023-07-29T08:32:14;4.25;;;1.45;;
76073;SDS011;64776;42.636;24.358;2023-07-29T08:35:15;13.90;;;3.85;;
76073;SDS011;64776;42.636;24.358;2023-07-29T08:38:16;4.18;;;1.00;;
76073;SDS011;64776;42.636;24.358;2023-07-29T08:41:19;3.58;;;1.15;;
76073;SDS011;64776;42.636;24.358;2023-07-29T08:44:27;7.32;;;1.80;;
76073;SDS011;64776;42.636;24.358;2023-07-29T08:47:31;5.07;;;1.48;;
76073;SDS011;64776;42.636;24.358;2023-07-29T08:50:32;3.28;;;0.90;;
76073;SDS011;64776;42.636;24.358;2023-07-29T08:53:33;5.15;;;1.35;;
76073;SDS011;64776;42.636;24.358;2023-07-29T08:56:35;4.38;;;1.30;;
76073;SDS011;64776;42.636;24.358;2023-07-29T08:59:38;3.97;;;1.27;;
76073;SDS011;64776;42.636;24.358;2023-07-29T09:02:40;3.83;;;1.33;;
76073;SDS011;64776;42.636;24.358;2023-07-29T09:05:41;3.53;;;1.38;;
76073;SDS011;64776;42.636;24.358;2023-07-29T09:08:43;3.90;;;1.23;;
76073;SDS011;64776;42.636;24.358;2023-07-29T09:11:45;3.65;;;1.25;;
76073;SDS011;64776;42.636;24.358;2023-07-29T09:14:47;4.00;;;1.67;;
76073;SDS011;64776;42.636;24.358;2023-07-29T09:17:52;5.35;;;1.38;;
76073;SDS011;64776;42.636;24.358;2023-07-29T09:20:53;3.38;;;0.82;;
76073;SDS011;64776;42.636;24.358;2023-07-29T09:23:54;6.88;;;1.70;;
76073;SDS011;64776;42.636;24.358;2023-07-29T09:26:55;4.15;;;1.52;;
76073;SDS011;64776;42.636;24.358;2023-07-29T09:29:57;8.43;;;1.65;;
76073;SDS011;64776;42.636;24.358;2023-07-29T09:32:58;5.07;;;1.40;;
76073;SDS011;64776;42.636;24.358;2023-07-29T09:35:59;17.85;;;4.05;;
76073;SDS011;64776;42.636;24.358;2023-07-29T09:39:00;4.38;;;1.45;;
76073;SDS011;64776;42.636;24.358;2023-07-29T09:42:02;7.80;;;1.60;;
76073;SDS011;64776;42.636;24.358;2023-07-29T09:45:05;7.53;;;1.63;;
76073;SDS011;64776;42.636;24.358;2023-07-29T09:48:06;5.40;;;1.95;;
76073;SDS011;64776;42.636;24.358;2023-07-29T09:51:11;10.18;;;1.83;;
76073;SDS011;64776;42.636;24.358;2023-07-29T09:54:13;7.78;;;2.50;;
76073;SDS011;64776;42.636;24.358;2023-07-29T09:57:14;4.32;;;1.27;;
76073;SDS011;64776;42.636;24.358;2023-07-29T10:00:17;3.70;;;1.83;;
76073;SDS011;64776;42.636;24.358;2023-07-29T10:03:21;6.18;;;1.65;;
76073;SDS011;64776;42.636;24.358;2023-07-29T10:06:22;4.55;;;1.60;;
76073;SDS011;64776;42.636;24.358;2023-07-29T10:09:23;3.72;;;1.40;;
76073;SDS011;64776;42.636;24.358;2023-07-29T10:12:25;4.25;;;1.90;;
76073;SDS011;64776;42.636;24.358;2023-07-29T10:15:29;4.68;;;1.48;;
76073;SDS011;64776;42.636;24.358;2023-07-29T10:18:32;6.88;;;1.88;;
76073;SDS011;64776;42.636;24.358;2023-07-29T10:21:33;4.93;;;1.38;;
76073;SDS011;64776;42.636;24.358;2023-07-29T10:24:37;6.72;;;1.45;;
76073;SDS011;64776;42.636;24.358;2023-07-29T10:27:42;4.07;;;1.55;;
76073;SDS011;64776;42.636;24.358;2023-07-29T10:30:45;4.07;;;1.52;;
76073;SDS011;64776;42.636;24.358;2023-07-29T10:33:47;4.10;;;1.27;;
76073;SDS011;64776;42.636;24.358;2023-07-29T10:36:49;3.85;;;1.40;;
76073;SDS011;64776;42.636;24.358;2023-07-29T10:39:52;5.22;;;1.65;;
76073;SDS011;64776;42.636;24.358;2023-07-29T10:43:00;5.65;;;2.20;;
76073;SDS011;64776;42.636;24.358;2023-07-29T10:46:15;4.47;;;1.58;;
76073;SDS011;64776;42.636;24.358;2023-07-29T10:49:17;2.90;;;1.15;;
76073;SDS011;64776;42.636;24.358;2023-07-29T10:52:30;8.90;;;1.92;;
76073;SDS011;64776;42.636;24.358;2023-07-29T10:58:42;6.18;;;1.25;;
76073;SDS011;64776;42.636;24.358;2023-07-29T11:01:50;6.47;;;1.65;;
76073;SDS011;64776;42.636;24.358;2023-07-29T11:04:52;6.72;;;1.48;;
76073;SDS011;64776;42.636;24.358;2023-07-29T11:07:53;3.40;;;1.63;;
76073;SDS011;64776;42.636;24.358;2023-07-29T11:11:04;5.38;;;2.05;;
76073;SDS011;64776;42.636;24.358;2023-07-29T11:14:06;3.75;;;1.63;;
76073;SDS011;64776;42.636;24.358;2023-07-29T11:17:09;4.45;;;1.55;;
76073;SDS011;64776;42.636;24.358;2023-07-29T11:20:10;3.83;;;1.88;;
76073;SDS011;64776;42.636;24.358;2023-07-29T11:23:12;5.38;;;1.45;;
76073;SDS011;64776;42.636;24.358;2023-07-29T11:26:13;4.25;;;1.52;;
76073;SDS011;64776;42.636;24.358;2023-07-29T11:29:15;6.15;;;1.80;;
76073;SDS011;64776;42.636;24.358;2023-07-29T11:32:17;8.75;;;1.85;;
76073;SDS011;64776;42.636;24.358;2023-07-29T11:38:20;8.63;;;2.65;;
76073;SDS011;64776;42.636;24.358;2023-07-29T11:41:22;13.68;;;5.15;;
76073;SDS011;64776;42.636;24.358;2023-07-29T11:44:23;4.18;;;1.98;;
76073;SDS011;64776;42.636;24.358;2023-07-29T11:47:26;7.40;;;3.05;;
76073;SDS011;64776;42.636;24.358;2023-07-29T11:50:27;6.68;;;2.00;;
76073;SDS011;64776;42.636;24.358;2023-07-29T11:53:28;4.35;;;1.90;;
76073;SDS011;64776;42.636;24.358;2023-07-29T11:56:29;4.47;;;1.80;;
76073;SDS011;64776;42.636;24.358;2023-07-29T11:59:30;6.20;;;2.25;;
76073;SDS011;64776;42.636;24.358;2023-07-29T12:02:34;4.88;;;1.80;;
76073;SDS011;64776;42.636;24.358;2023-07-29T12:05:37;4.45;;;2.00;;
76073;SDS011;64776;42.636;24.358;2023-07-29T12:08:38;14.00;;;2.53;;
76073;SDS011;64776;42.636;24.358;2023-07-29T12:11:39;5.65;;;1.95;;
76073;SDS011;64776;42.636;24.358;2023-07-29T12:14:43;4.38;;;1.70;;
76073;SDS011;64776;42.636;24.358;2023-07-29T12:17:46;4.22;;;2.03;;
76073;SDS011;64776;42.636;24.358;2023-07-29T12:20:47;5.20;;;2.05;;
76073;SDS011;64776;42.636;24.358;2023-07-29T12:23:51;5.93;;;2.35;;
76073;SDS011;64776;42.636;24.358;2023-07-29T12:26:52;4.82;;;1.67;;
76073;SDS011;64776;42.636;24.358;2023-07-29T12:29:53;5.78;;;2.63;;
76073;SDS011;64776;42.636;24.358;2023-07-29T12:32:55;4.35;;;2.25;;
76073;SDS011;64776;42.636;24.358;2023-07-29T12:35:56;4.68;;;1.90;;
76073;SDS011;64776;42.636;24.358;2023-07-29T12:38:58;4.55;;;2.05;;
76073;SDS011;64776;42.636;24.358;2023-07-29T12:42:00;6.07;;;2.15;;
76073;SDS011;64776;42.636;24.358;2023-07-29T12:45:01;8.27;;;4.57;;
76073;SDS011;64776;42.636;24.358;2023-07-29T12:48:03;4.88;;;1.98;;
76073;SDS011;64776;42.636;24.358;2023-07-29T12:51:04;4.95;;;2.65;;
76073;SDS011;64776;42.636;24.358;2023-07-29T12:54:05;4.82;;;2.47;;
76073;SDS011;64776;42.636;24.358;2023-07-29T12:57:06;6.97;;;3.30;;
76073;SDS011;64776;42.636;24.358;2023-07-29T13:00:07;4.18;;;2.03;;
76073;SDS011;64776;42.636;24.358;2023-07-29T13:03:10;4.78;;;1.80;;
76073;SDS011;64776;42.636;24.358;2023-07-29T13:06:11;5.50;;;2.22;;
76073;SDS011;64776;42.636;24.358;2023-07-29T13:09:12;2.88;;;1.30;;
76073;SDS011;64776;42.636;24.358;2023-07-29T13:12:12;4.45;;;1.80;;
76073;SDS011;64776;42.636;24.358;2023-07-29T13:15:13;4.00;;;1.73;;
76073;SDS011;64776;42.636;24.358;2023-07-29T13:18:16;3.55;;;1.40;;
76073;SDS011;64776;42.636;24.358;2023-07-29T13:21:17;4.75;;;1.60;;
76073;SDS011;64776;42.636;24.358;2023-07-29T13:24:19;4.88;;;1.88;;
76073;SDS011;64776;42.636;24.358;2023-07-29T13:27:19;6.07;;;1.38;;
76073;SDS011;64776;42.636;24.358;2023-07-29T13:30:20;5.32;;;1.30;;
76073;SDS011;64776;42.636;24.358;2023-07-29T13:33:22;5.38;;;1.30;;
76073;SDS011;64776;42.636;24.358;2023-07-29T13:36:23;4.85;;;2.30;;
76073;SDS011;64776;42.636;24.358;2023-07-29T13:39:24;3.90;;;1.38;;
76073;SDS011;64776;42.636;24.358;2023-07-29T13:42:24;6.35;;;1.23;;
76073;SDS011;64776;42.636;24.358;2023-07-29T13:45:25;3.33;;;1.27;;
76073;SDS011;64776;42.636;24.358;2023-07-29T13:48:28;3.10;;;1.05;;
76073;SDS011;64776;42.636;24.358;2023-07-29T13:51:28;4.68;;;1.23;;
76073;SDS011;64776;42.636;24.358;2023-07-29T13:54:29;5.80;;;1.70;;
76073;SDS011;64776;42.636;24.358;2023-07-29T13:57:30;5.15;;;1.58;;
76073;SDS011;64776;42.636;24.358;2023-07-29T14:00:31;3.15;;;1.35;;
76073;SDS011;64776;42.636;24.358;2023-07-29T14:03:34;6.30;;;1.50;;
76073;SDS011;64776;42.636;24.358;2023-07-29T14:06:35;4.35;;;1.25;;
76073;SDS011;64776;42.636;24.358;2023-07-29T14:09:35;4.47;;;1.35;;
76073;SDS011;64776;42.636;24.358;2023-07-29T14:12:36;4.28;;;1.58;;
76073;SDS011;64776;42.636;24.358;2023-07-29T14:15:37;5.28;;;1.55;;
76073;SDS011;64776;42.636;24.358;2023-07-29T14:18:39;3.80;;;1.25;;
76073;SDS011;64776;42.636;24.358;2023-07-29T14:21:40;4.80;;;1.13;;
76073;SDS011;64776;42.636;24.358;2023-07-29T14:24:41;3.00;;;1.33;;
76073;SDS011;64776;42.636;24.358;2023-07-29T14:27:41;4.15;;;1.63;;
76073;SDS011;64776;42.636;24.358;2023-07-29T14:30:42;3.55;;;1.40;;
76073;SDS011;64776;42.636;24.358;2023-07-29T14:33:45;5.05;;;1.75;;
76073;SDS011;64776;42.636;24.358;2023-07-29T14:36:45;6.30;;;2.15;;
76073;SDS011;64776;42.636;24.358;2023-07-29T14:39:46;4.60;;;1.98;;
76073;SDS011;64776;42.636;24.358;2023-07-29T14:42:47;6.47;;;2.15;;
76073;SDS011;64776;42.636;24.358;2023-07-29T14:45:48;5.68;;;1.65;;
76073;SDS011;64776;42.636;24.358;2023-07-29T14:48:50;4.35;;;1.70;;
76073;SDS011;64776;42.636;24.358;2023-07-29T14:51:51;7.90;;;1.70;;
76073;SDS011;64776;42.636;24.358;2023-07-29T14:54:52;2.80;;;1.27;;
76073;SDS011;64776;42.636;24.358;2023-07-29T14:57:52;3.47;;;1.02;;
76073;SDS011;64776;42.636;24.358;2023-07-29T15:00:53;3.50;;;1.50;;
76073;SDS011;64776;42.636;24.358;2023-07-29T15:03:55;2.85;;;1.40;;
76073;SDS011;64776;42.636;24.358;2023-07-29T15:06:56;8.13;;;2.47;;
76073;SDS011;64776;42.636;24.358;2023-07-29T15:09:57;3.63;;;1.60;;
76073;SDS011;64776;42.636;24.358;2023-07-29T15:12:58;3.45;;;1.33;;
76073;SDS011;64776;42.636;24.358;2023-07-29T15:15:58;3.35;;;1.30;;
76073;SDS011;64776;42.636;24.358;2023-07-29T15:19:01;13.40;;;1.90;;
76073;SDS011;64776;42.636;24.358;2023-07-29T15:22:02;5.65;;;2.78;;
76073;SDS011;64776;42.636;24.358;2023-07-29T15:25:03;6.28;;;1.67;;
76073;SDS011;64776;42.636;24.358;2023-07-29T15:28:04;5.95;;;1.80;;
76073;SDS011;64776;42.636;24.358;2023-07-29T15:31:05;5.25;;;1.83;;
76073;SDS011;64776;42.636;24.358;2023-07-29T15:34:07;5.85;;;1.60;;
76073;SDS011;64776;42.636;24.358;2023-07-29T15:37:08;8.15;;;2.00;;
76073;SDS011;64776;42.636;24.358;2023-07-29T15:40:09;4.20;;;1.58;;
76073;SDS011;64776;42.636;24.358;2023-07-29T15:43:10;4.30;;;1.20;;
76073;SDS011;64776;42.636;24.358;2023-07-29T15:46:11;4.22;;;1.30;;
76073;SDS011;64776;42.636;24.358;2023-07-29T15:49:13;6.20;;;2.30;;
76073;SDS011;64776;42.636;24.358;2023-07-29T15:52:14;5.15;;;1.88;;
76073;SDS011;64776;42.636;24.358;2023-07-29T15:55:15;5.22;;;1.60;;
76073;SDS011;64776;42.636;24.358;2023-07-29T15:58:15;4.90;;;1.65;;
76073;SDS011;64776;42.636;24.358;2023-07-29T16:01:16;4.30;;;1.42;;
76073;SDS011;64776;42.636;24.358;2023-07-29T16:04:18;10.63;;;4.15;;
76073;SDS011;64776;42.636;24.358;2023-07-29T16:07:19;5.38;;;1.65;;
76073;SDS011;64776;42.636;24.358;2023-07-29T16:10:20;5.82;;;1.20;;
76073;SDS011;64776;42.636;24.358;2023-07-29T16:13:21;3.95;;;1.20;;
76073;SDS011;64776;42.636;24.358;2023-07-29T16:16:22;4.30;;;2.00;;
76073;SDS011;64776;42.636;24.358;2023-07-29T16:19:25;8.13;;;3.08;;
76073;SDS011;64776;42.636;24.358;2023-07-29T16:22:27;16.38;;;7.47;;
76073;SDS011;64776;42.636;24.358;2023-07-29T16:25:28;10.52;;;4.25;;
76073;SDS011;64776;42.636;24.358;2023-07-29T16:28:29;41.85;;;25.00;;
76073;SDS011;64776;42.636;24.358;2023-07-29T16:31:30;170.70;;;101.22;;
76073;SDS011;64776;42.636;24.358;2023-07-29T16:34:32;237.15;;;164.38;;
76073;SDS011;64776;42.636;24.358;2023-07-29T16:37:33;37.78;;;22.10;;
76073;SDS011;64776;42.636;24.358;2023-07-29T16:40:33;62.03;;;39.72;;
76073;SDS011;64776;42.636;24.358;2023-07-29T16:43:34;82.97;;;61.85;;
76073;SDS011;64776;42.636;24.358;2023-07-29T16:46:35;20.42;;;17.48;;
76073;SDS011;64776;42.636;24.358;2023-07-29T16:49:37;15.82;;;9.23;;
76073;SDS011;64776;42.636;24.358;2023-07-29T16:52:38;11.07;;;7.35;;
76073;SDS011;64776;42.636;24.358;2023-07-29T16:55:39;11.48;;;5.22;;
76073;SDS011;64776;42.636;24.358;2023-07-29T16:58:41;11.38;;;8.98;;
76073;SDS011;64776;42.636;24.358;2023-07-29T17:01:42;8.32;;;3.17;;
76073;SDS011;64776;42.636;24.358;2023-07-29T17:04:44;10.88;;;3.47;;
76073;SDS011;64776;42.636;24.358;2023-07-29T17:07:45;4.47;;;1.73;;
76073;SDS011;64776;42.636;24.358;2023-07-29T17:10:46;3.75;;;1.65;;
76073;SDS011;64776;42.636;24.358;2023-07-29T17:13:47;4.60;;;1.40;;
76073;SDS011;64776;42.636;24.358;2023-07-29T17:16:47;3.55;;;1.27;;
76073;SDS011;64776;42.636;24.358;2023-07-29T17:19:49;2.92;;;1.08;;
76073;SDS011;64776;42.636;24.358;2023-07-29T17:22:50;3.28;;;1.20;;
76073;SDS011;64776;42.636;24.358;2023-07-29T17:25:51;5.07;;;1.48;;
76073;SDS011;64776;42.636;24.358;2023-07-29T17:28:52;4.38;;;1.48;;
76073;SDS011;64776;42.636;24.358;2023-07-29T17:31:52;4.15;;;0.98;;
76073;SDS011;64776;42.636;24.358;2023-07-29T17:34:55;4.78;;;1.30;;
76073;SDS011;64776;42.636;24.358;2023-07-29T17:37:55;7.45;;;2.38;;
76073;SDS011;64776;42.636;24.358;2023-07-29T17:40:56;7.07;;;2.05;;
76073;SDS011;64776;42.636;24.358;2023-07-29T17:43:57;3.92;;;1.23;;
76073;SDS011;64776;42.636;24.358;2023-07-29T17:46:58;3.90;;;1.30;;
76073;SDS011;64776;42.636;24.358;2023-07-29T17:50:00;12.38;;;2.10;;
76073;SDS011;64776;42.636;24.358;2023-07-29T17:53:01;3.72;;;1.20;;
76073;SDS011;64776;42.636;24.358;2023-07-29T17:56:02;5.78;;;1.83;;
76073;SDS011;64776;42.636;24.358;2023-07-29T17:59:03;5.40;;;1.88;;